createdAt,value
2023-05-06T00:00:30.623Z,100.00
2023-05-06T00:03:00.318Z,100.00
2023-05-06T00:05:28.970Z,100.00
2023-05-06T00:07:56.587Z,100.00
2023-05-06T00:10:24.090Z,100.00
2023-05-06T00:12:51.659Z,100.00
2023-05-06T00:15:19.140Z,100.00
2023-05-06T00:17:46.553Z,100.00
2023-05-06T00:20:14.960Z,100.00
2023-05-06T00:22:42.370Z,100.00
2023-05-06T00:25:10.378Z,100.00
2023-05-06T00:27:38.823Z,100.00
2023-05-06T00:30:06.764Z,100.00
2023-05-06T00:32:34.277Z,100.00
2023-05-06T00:35:01.644Z,100.00
2023-05-06T00:37:29.491Z,100.00
2023-05-06T00:39:56.933Z,100.00
2023-05-06T00:42:24.401Z,100.00
2023-05-06T00:44:51.917Z,100.00
2023-05-06T00:47:21.208Z,100.00
2023-05-06T00:49:50.888Z,100.00
2023-05-06T00:52:20.001Z,100.00
2023-05-06T00:54:47.500Z,100.00
2023-05-06T00:57:15.065Z,100.00
2023-05-06T00:59:42.590Z,100.00
2023-05-06T01:02:10.000Z,100.00
2023-05-06T01:04:37.577Z,100.00
2023-05-06T01:07:05.058Z,100.00
2023-05-06T01:09:47.416Z,100.00
2023-05-06T01:12:23.774Z,100.00
2023-05-06T01:15:22.271Z,100.00
2023-05-06T01:17:53.644Z,100.00
2023-05-06T01:20:22.100Z,100.00
2023-05-06T01:22:50.922Z,100.00
2023-05-06T01:25:20.657Z,100.00
2023-05-06T01:27:48.991Z,100.00
2023-05-06T01:30:18.442Z,100.00
2023-05-06T01:33:11.710Z,100.00
2023-05-06T01:36:06.799Z,100.00
2023-05-06T01:38:42.445Z,100.00
2023-05-06T01:41:15.082Z,100.00
2023-05-06T01:43:45.537Z,100.00
2023-05-06T01:46:18.008Z,100.00
2023-05-06T01:48:55.328Z,100.00
2023-05-06T01:51:23.145Z,100.00
2023-05-06T01:53:50.624Z,100.00
2023-05-06T01:56:18.166Z,100.00
2023-05-06T01:58:45.623Z,100.00
2023-05-06T02:01:12.954Z,100.00
2023-05-06T02:03:40.798Z,100.00
2023-05-06T02:06:08.200Z,100.00
2023-05-06T02:08:35.855Z,100.00
2023-05-06T02:11:03.245Z,100.00
2023-05-06T02:13:31.303Z,100.00
2023-05-06T02:15:58.741Z,100.00
2023-05-06T02:18:26.176Z,100.00
2023-05-06T02:20:53.556Z,100.00
2023-05-06T02:23:20.988Z,100.00
2023-05-06T02:25:48.407Z,100.00
2023-05-06T02:28:15.992Z,100.00
2023-05-06T02:30:43.522Z,100.00
2023-05-06T02:33:11.042Z,100.00
2023-05-06T02:35:38.538Z,100.00
2023-05-06T02:38:05.952Z,100.00
2023-05-06T02:40:34.149Z,100.00
2023-05-06T02:43:01.958Z,100.00
2023-05-06T02:45:29.741Z,100.00
2023-05-06T02:47:57.157Z,100.00
2023-05-06T02:50:24.646Z,100.00
2023-05-06T02:52:52.007Z,100.00
2023-05-06T02:55:19.631Z,100.00
2023-05-06T02:57:47.020Z,100.00
2023-05-06T03:00:15.596Z,100.00
2023-05-06T03:02:43.217Z,100.00
2023-05-06T03:05:10.816Z,100.00
2023-05-06T03:07:38.848Z,100.00
2023-05-06T03:10:07.479Z,100.00
2023-05-06T03:12:39.061Z,99.29
2023-05-06T03:15:07.352Z,100.00
2023-05-06T03:17:36.171Z,99.25
2023-05-06T03:20:05.740Z,99.36
2023-05-06T03:22:33.841Z,99.90
2023-05-06T03:25:01.279Z,99.47
2023-05-06T03:27:28.641Z,99.14
2023-05-06T03:29:56.044Z,99.02
2023-05-06T03:32:23.408Z,100.00
2023-05-06T03:34:51.040Z,100.00
2023-05-06T03:37:18.906Z,99.98
2023-05-06T03:39:46.248Z,100.00
2023-05-06T03:42:14.032Z,98.29
2023-05-06T03:44:41.392Z,97.82
2023-05-06T03:47:08.789Z,97.02
2023-05-06T03:49:36.880Z,97.92
2023-05-06T03:52:05.051Z,96.59
2023-05-06T03:54:32.450Z,96.07
2023-05-06T03:56:59.881Z,96.91
2023-05-06T03:59:27.226Z,96.51
2023-05-06T04:01:54.728Z,96.90
2023-05-06T04:04:22.165Z,96.42
2023-05-06T04:06:49.459Z,95.54
2023-05-06T04:09:16.973Z,95.95
2023-05-06T04:11:44.495Z,96.34
2023-05-06T04:14:11.932Z,95.73
2023-05-06T04:16:39.464Z,97.34
2023-05-06T04:19:07.096Z,96.31
2023-05-06T04:21:34.801Z,95.24
2023-05-06T04:24:02.613Z,95.55
2023-05-06T04:26:31.515Z,95.55
2023-05-06T04:28:58.870Z,94.53
2023-05-06T04:31:27.959Z,93.78
2023-05-06T04:33:55.431Z,93.55
2023-05-06T04:36:23.921Z,92.84
2023-05-06T04:38:52.836Z,93.57
2023-05-06T04:41:20.692Z,94.49
2023-05-06T04:43:48.271Z,93.85
2023-05-06T04:46:15.636Z,93.89
2023-05-06T04:48:43.171Z,94.20
2023-05-06T04:51:10.677Z,94.19
2023-05-06T04:53:38.044Z,93.07
2023-05-06T04:56:05.578Z,93.37
2023-05-06T04:58:33.755Z,92.10
2023-05-06T05:01:05.834Z,92.92
2023-05-06T05:03:33.836Z,91.49
2023-05-06T05:06:01.352Z,91.44
2023-05-06T05:08:28.751Z,91.05
2023-05-06T05:10:56.211Z,90.42
2023-05-06T05:13:23.939Z,91.76
2023-05-06T05:15:55.018Z,91.42
2023-05-06T05:18:22.536Z,90.99
2023-05-06T05:20:50.024Z,91.34
2023-05-06T05:23:17.484Z,92.31
2023-05-06T05:25:44.822Z,91.44
2023-05-06T05:28:12.408Z,91.49
2023-05-06T05:30:39.975Z,90.01
2023-05-06T05:33:07.510Z,87.74
2023-05-06T05:35:35.031Z,87.60
2023-05-06T05:38:02.411Z,85.89
2023-05-06T05:40:29.926Z,84.63
2023-05-06T05:42:57.268Z,82.69
2023-05-06T05:45:24.675Z,82.95
2023-05-06T05:47:53.888Z,83.41
2023-05-06T05:50:21.492Z,82.86
2023-05-06T05:52:49.416Z,82.55
2023-05-06T05:55:16.879Z,81.62
2023-05-06T05:57:44.273Z,80.98
2023-05-06T06:00:13.565Z,80.16
2023-05-06T06:02:41.361Z,80.56
2023-05-06T06:05:09.308Z,80.27
2023-05-06T06:07:37.123Z,78.93
2023-05-06T06:10:05.019Z,78.83
2023-05-06T06:12:32.747Z,78.39
2023-05-06T06:15:00.172Z,78.02
2023-05-06T06:17:27.573Z,77.88
2023-05-06T06:19:57.312Z,76.13
2023-05-06T06:22:24.708Z,77.33
2023-05-06T06:24:53.886Z,75.25
2023-05-06T06:27:21.238Z,71.92
2023-05-06T06:29:51.422Z,71.19
2023-05-06T06:32:19.677Z,69.63
2023-05-06T06:34:47.205Z,70.70
2023-05-06T06:37:14.585Z,68.68
2023-05-06T06:39:42.029Z,67.47
2023-05-06T06:42:10.028Z,66.55
2023-05-06T06:44:37.585Z,67.29
2023-05-06T06:47:05.192Z,66.72
2023-05-06T06:49:32.634Z,65.86
2023-05-06T06:51:59.949Z,65.57
2023-05-06T06:54:27.319Z,64.76
2023-05-06T06:56:56.248Z,61.96
2023-05-06T06:59:23.759Z,61.03
2023-05-06T07:01:51.224Z,60.94
2023-05-06T07:04:18.770Z,62.26
2023-05-06T07:06:46.511Z,62.05
2023-05-06T07:09:13.898Z,61.70
2023-05-06T07:11:41.333Z,62.59
2023-05-06T07:14:08.970Z,61.35
2023-05-06T07:16:36.425Z,60.18
2023-05-06T07:19:03.950Z,61.10
2023-05-06T07:21:34.720Z,58.51
2023-05-06T07:24:02.119Z,56.75
2023-05-06T07:26:29.583Z,56.02
2023-05-06T07:28:57.159Z,56.95
2023-05-06T07:31:24.641Z,54.35
2023-05-06T07:33:52.061Z,52.27
2023-05-06T07:36:19.461Z,51.41
2023-05-06T07:38:46.870Z,52.74
2023-05-06T07:41:14.188Z,55.97
2023-05-06T07:43:41.861Z,54.51
2023-05-06T07:46:09.273Z,53.04
2023-05-06T07:48:36.751Z,52.30
2023-05-06T07:51:04.385Z,54.20
2023-05-06T07:53:31.908Z,50.66
2023-05-06T07:56:02.280Z,47.50
2023-05-06T07:58:31.315Z,50.72
2023-05-06T08:00:59.159Z,51.17
2023-05-06T08:03:26.707Z,49.16
2023-05-06T08:05:55.370Z,47.71
2023-05-06T08:08:24.037Z,47.61
2023-05-06T08:10:51.532Z,48.15
2023-05-06T08:13:18.968Z,47.40
2023-05-06T08:15:46.478Z,49.10
2023-05-06T08:18:21.683Z,46.95
2023-05-06T08:20:50.293Z,46.53
2023-05-06T08:23:17.615Z,47.16
2023-05-06T08:25:45.172Z,44.50
2023-05-06T08:28:12.691Z,43.14
2023-05-06T08:30:40.054Z,41.94
2023-05-06T08:33:07.408Z,41.32
2023-05-06T08:35:34.917Z,41.49
2023-05-06T08:38:02.574Z,41.35
2023-05-06T08:40:33.745Z,41.00
2023-05-06T08:43:04.255Z,40.96
2023-05-06T08:45:33.117Z,39.23
2023-05-06T08:48:00.758Z,39.04
2023-05-06T08:50:28.642Z,38.00
2023-05-06T08:52:56.262Z,37.07
2023-05-06T08:55:26.618Z,37.46
2023-05-06T08:57:55.881Z,36.55
2023-05-06T09:00:23.364Z,35.84
2023-05-06T09:02:50.782Z,36.51
2023-05-06T09:05:18.282Z,37.64
2023-05-06T09:07:45.856Z,36.84
2023-05-06T09:10:14.775Z,35.75
2023-05-06T09:12:42.256Z,34.88
2023-05-06T09:15:10.404Z,36.46
2023-05-06T09:17:38.703Z,35.66
2023-05-06T09:20:09.484Z,35.94
2023-05-06T09:22:40.249Z,36.24
2023-05-06T09:25:08.151Z,34.55
2023-05-06T09:27:36.918Z,32.70
2023-05-06T09:30:07.042Z,32.78
2023-05-06T09:32:38.295Z,33.27
2023-05-06T09:35:09.537Z,33.04
2023-05-06T09:37:37.488Z,31.76
2023-05-06T09:40:06.100Z,31.97
2023-05-06T09:42:34.670Z,32.49
2023-05-06T09:45:02.627Z,32.89
2023-05-06T09:47:35.311Z,33.45
2023-05-06T09:50:03.984Z,32.09
2023-05-06T09:52:32.533Z,31.16
2023-05-06T09:55:01.573Z,31.11
2023-05-06T09:57:31.146Z,31.18
2023-05-06T10:00:01.492Z,30.35
2023-05-06T10:02:29.453Z,31.15
2023-05-06T10:04:58.927Z,30.42
2023-05-06T10:07:28.958Z,30.49
2023-05-06T10:09:59.144Z,31.42
2023-05-06T10:12:26.555Z,30.26
2023-05-06T10:14:54.198Z,30.87
2023-05-06T10:17:25.627Z,29.14
2023-05-06T10:19:58.984Z,30.81
2023-05-06T10:22:27.173Z,30.48
2023-05-06T10:25:12.574Z,30.80
2023-05-06T10:27:42.060Z,31.25
2023-05-06T10:30:11.611Z,29.55
2023-05-06T10:32:43.227Z,29.96
2023-05-06T10:35:19.665Z,29.76
2023-05-06T10:37:49.173Z,28.89
2023-05-06T10:40:17.073Z,28.21
2023-05-06T10:42:44.554Z,29.04
2023-05-06T10:45:12.278Z,29.78
2023-05-06T10:48:02.744Z,28.77
2023-05-06T10:50:30.363Z,29.21
2023-05-06T10:53:01.801Z,28.31
2023-05-06T10:55:33.968Z,28.42
2023-05-06T10:58:15.226Z,29.72
2023-05-06T11:00:52.898Z,29.02
2023-05-06T11:03:23.879Z,27.92
2023-05-06T11:05:52.538Z,28.75
2023-05-06T11:08:25.672Z,29.79
2023-05-06T11:10:54.345Z,29.06
2023-05-06T11:13:24.815Z,28.89
2023-05-06T11:15:53.072Z,29.57
2023-05-06T11:18:34.798Z,29.09
2023-05-06T11:21:04.969Z,28.07
2023-05-06T11:23:49.494Z,29.02
2023-05-06T11:26:17.033Z,29.03
2023-05-06T11:28:50.577Z,28.34
2023-05-06T11:31:18.422Z,29.18
2023-05-06T11:33:48.058Z,28.83
2023-05-06T11:36:17.874Z,29.83
2023-05-06T11:38:49.965Z,28.82
2023-05-06T11:41:18.410Z,28.50
2023-05-06T11:43:50.401Z,28.13
2023-05-06T11:46:24.092Z,28.43
2023-05-06T11:48:51.580Z,28.51
2023-05-06T11:51:25.933Z,27.96
2023-05-06T11:54:05.165Z,28.31
2023-05-06T11:56:46.614Z,27.59
2023-05-06T11:59:14.262Z,27.99
2023-05-06T12:01:43.143Z,27.48
2023-05-06T12:04:11.531Z,26.83
2023-05-06T12:06:40.206Z,27.43
2023-05-06T12:09:11.858Z,26.95
2023-05-06T12:11:42.074Z,27.19
2023-05-06T12:14:11.616Z,26.80
2023-05-06T12:16:39.393Z,26.26
2023-05-06T12:19:07.005Z,26.23
2023-05-06T12:21:38.232Z,26.96
2023-05-06T12:24:06.052Z,26.88
2023-05-06T12:26:49.798Z,27.55
2023-05-06T12:29:17.694Z,26.39
2023-05-06T12:31:47.336Z,26.07
2023-05-06T12:34:18.008Z,25.83
2023-05-06T12:36:47.362Z,26.08
2023-05-06T12:39:14.989Z,26.73
2023-05-06T12:41:45.634Z,25.76
2023-05-06T12:44:32.659Z,25.56
2023-05-06T12:47:08.102Z,25.84
2023-05-06T12:49:51.183Z,25.84
2023-05-06T12:52:21.764Z,26.35
2023-05-06T12:54:50.148Z,25.38
2023-05-06T12:57:17.503Z,25.41
2023-05-06T12:59:46.125Z,26.35
2023-05-06T13:02:14.214Z,25.08
2023-05-06T13:04:42.319Z,24.80
2023-05-06T13:07:09.728Z,25.40
2023-05-06T13:09:37.785Z,26.51
2023-05-06T13:12:05.670Z,25.60
2023-05-06T13:14:48.469Z,25.38
2023-05-06T13:17:16.145Z,26.46
2023-05-06T13:19:43.502Z,25.00
2023-05-06T13:22:10.885Z,25.95
2023-05-06T13:24:39.363Z,24.45
2023-05-06T13:27:06.733Z,24.83
2023-05-06T13:29:34.576Z,24.69
2023-05-06T13:32:02.150Z,25.35
2023-05-06T13:34:29.981Z,25.49
2023-05-06T13:36:58.707Z,25.54
2023-05-06T13:39:26.245Z,25.65
2023-05-06T13:41:54.283Z,24.84
2023-05-06T13:44:22.494Z,25.45
2023-05-06T13:46:50.284Z,25.09
2023-05-06T13:49:19.657Z,25.76
2023-05-06T13:51:47.009Z,25.81
2023-05-06T13:54:14.498Z,26.37
2023-05-06T13:56:42.125Z,26.91
2023-05-06T13:59:11.814Z,27.48
2023-05-06T14:01:40.576Z,27.36
2023-05-06T14:04:08.221Z,28.03
2023-05-06T14:06:35.825Z,28.40
2023-05-06T14:09:04.721Z,29.11
2023-05-06T14:11:32.358Z,28.99
2023-05-06T14:14:00.423Z,30.13
2023-05-06T14:16:27.828Z,30.98
2023-05-06T14:18:55.224Z,31.10
2023-05-06T14:21:22.837Z,31.21
2023-05-06T14:23:50.185Z,31.08
2023-05-06T14:26:17.744Z,32.10
2023-05-06T14:28:45.755Z,32.75
2023-05-06T14:31:13.252Z,33.18
2023-05-06T14:33:40.797Z,32.75
2023-05-06T14:36:08.432Z,33.75
2023-05-06T14:38:36.027Z,32.99
2023-05-06T14:41:03.387Z,32.88
2023-05-06T14:43:31.300Z,33.50
2023-05-06T14:45:58.722Z,33.35
2023-05-06T14:48:26.227Z,33.63
2023-05-06T14:50:53.658Z,34.67
2023-05-06T14:53:21.244Z,34.01
2023-05-06T14:55:49.042Z,33.55
2023-05-06T14:58:16.444Z,34.06
2023-05-06T15:00:44.835Z,34.91
2023-05-06T15:03:12.255Z,34.26
2023-05-06T15:05:39.822Z,34.79
2023-05-06T15:08:07.444Z,35.00
2023-05-06T15:10:35.138Z,36.28
2023-05-06T15:13:02.713Z,36.66
2023-05-06T15:15:30.471Z,37.49
2023-05-06T15:17:57.925Z,37.34
2023-05-06T15:20:25.318Z,37.18
2023-05-06T15:22:52.738Z,37.62
2023-05-06T15:25:33.308Z,37.37
2023-05-06T15:28:02.182Z,38.04
2023-05-06T15:30:29.927Z,37.73
2023-05-06T15:32:57.417Z,37.54
2023-05-06T15:35:24.799Z,38.08
2023-05-06T15:37:58.542Z,38.25
2023-05-06T15:40:27.052Z,37.96
2023-05-06T15:42:54.471Z,38.22
2023-05-06T15:45:22.373Z,39.40
2023-05-06T15:47:49.874Z,39.30
2023-05-06T15:50:31.986Z,38.75
2023-05-06T15:53:02.235Z,38.91
2023-05-06T15:55:35.080Z,39.05
2023-05-06T15:58:08.760Z,39.43
2023-05-06T16:00:36.109Z,39.86
2023-05-06T16:03:03.827Z,39.77
2023-05-06T16:05:31.961Z,39.80
2023-05-06T16:07:59.784Z,40.58
2023-05-06T16:10:27.238Z,40.71
2023-05-06T16:12:54.760Z,41.27
2023-05-06T16:15:22.149Z,41.35
2023-05-06T16:17:49.588Z,41.35
2023-05-06T16:20:17.045Z,41.84
2023-05-06T16:22:50.546Z,41.65
2023-05-06T16:25:17.937Z,41.77
2023-05-06T16:27:45.584Z,42.11
2023-05-06T16:30:13.395Z,42.48
2023-05-06T16:32:41.470Z,43.34
2023-05-06T16:35:09.605Z,43.38
2023-05-06T16:37:37.335Z,43.43
2023-05-06T16:40:05.072Z,44.27
2023-05-06T16:42:33.713Z,44.12
2023-05-06T16:45:01.074Z,44.30
2023-05-06T16:47:28.541Z,44.41
2023-05-06T16:49:56.014Z,44.64
2023-05-06T16:52:23.499Z,45.02
2023-05-06T16:54:53.579Z,45.57
2023-05-06T16:57:21.250Z,45.85
2023-05-06T16:59:48.582Z,45.97
2023-05-06T17:02:15.955Z,46.49
2023-05-06T17:04:43.412Z,46.31
2023-05-06T17:07:11.435Z,45.87
2023-05-06T17:09:39.222Z,46.54
2023-05-06T17:12:07.578Z,46.12
2023-05-06T17:14:35.834Z,46.69
2023-05-06T17:17:05.381Z,46.67
2023-05-06T17:19:33.728Z,46.12
2023-05-06T17:22:01.051Z,46.44
2023-05-06T17:24:28.488Z,46.25
2023-05-06T17:26:55.903Z,46.37
2023-05-06T17:29:23.249Z,46.36
2023-05-06T17:31:50.730Z,46.64
2023-05-06T17:34:18.287Z,46.84
2023-05-06T17:36:45.776Z,47.79
2023-05-06T17:39:13.272Z,47.07
2023-05-06T17:41:40.907Z,47.99
2023-05-06T17:44:08.286Z,48.11
2023-05-06T17:46:35.724Z,47.95
2023-05-06T17:49:03.368Z,49.14
2023-05-06T17:51:31.577Z,49.20
2023-05-06T17:53:59.056Z,50.25
2023-05-06T17:56:26.629Z,50.82
2023-05-06T17:58:54.064Z,50.41
2023-05-06T18:01:21.407Z,51.48
2023-05-06T18:03:49.010Z,51.96
2023-05-06T18:06:16.787Z,52.83
2023-05-06T18:08:44.997Z,53.08
2023-05-06T18:11:12.378Z,53.51
2023-05-06T18:13:40.151Z,54.00
2023-05-06T18:16:07.794Z,55.20
2023-05-06T18:18:35.198Z,55.32
2023-05-06T18:21:02.603Z,56.54
2023-05-06T18:23:30.479Z,56.67
2023-05-06T18:25:57.977Z,56.72
2023-05-06T18:28:25.587Z,56.52
2023-05-06T18:30:52.979Z,57.11
2023-05-06T18:33:20.506Z,57.37
2023-05-06T18:35:47.902Z,57.34
2023-05-06T18:38:15.685Z,56.91
2023-05-06T18:40:43.864Z,57.32
2023-05-06T18:43:11.330Z,57.17
2023-05-06T18:45:38.946Z,58.04
2023-05-06T18:48:06.410Z,57.53
2023-05-06T18:50:35.892Z,58.32
2023-05-06T18:53:03.632Z,58.08
2023-05-06T18:55:31.960Z,58.37
2023-05-06T18:57:59.366Z,59.39
2023-05-06T19:00:28.274Z,59.31
2023-05-06T19:02:55.838Z,59.31
2023-05-06T19:05:23.332Z,59.99
2023-05-06T19:07:51.198Z,60.27
2023-05-06T19:10:18.660Z,60.84
2023-05-06T19:12:46.347Z,61.24
2023-05-06T19:15:14.158Z,60.88
2023-05-06T19:17:41.933Z,60.89
2023-05-06T19:20:10.664Z,61.31
2023-05-06T19:22:38.261Z,61.15
2023-05-06T19:25:06.081Z,61.96
2023-05-06T19:27:33.532Z,62.28
2023-05-06T19:30:00.845Z,63.01
2023-05-06T19:32:28.593Z,63.12
2023-05-06T19:34:55.942Z,63.61
2023-05-06T19:37:23.402Z,62.16
2023-05-06T19:39:50.827Z,63.07
2023-05-06T19:42:18.264Z,63.41
2023-05-06T19:44:48.048Z,63.83
2023-05-06T19:47:15.627Z,64.89
2023-05-06T19:49:42.987Z,64.37
2023-05-06T19:52:10.622Z,64.55
2023-05-06T19:54:37.997Z,64.35
2023-05-06T19:57:05.720Z,63.58
2023-05-06T19:59:33.100Z,62.93
2023-05-06T20:02:01.878Z,64.07
2023-05-06T20:04:29.505Z,64.64
2023-05-06T20:06:57.943Z,64.72
2023-05-06T20:09:25.356Z,64.31
2023-05-06T20:11:52.820Z,65.68
2023-05-06T20:14:20.188Z,64.42
2023-05-06T20:16:47.716Z,64.70
2023-05-06T20:19:15.240Z,64.27
2023-05-06T20:21:42.559Z,64.32
2023-05-06T20:24:09.974Z,64.95
2023-05-06T20:26:37.340Z,65.21
2023-05-06T20:29:04.958Z,65.49
2023-05-06T20:31:33.199Z,65.87
2023-05-06T20:34:00.855Z,66.07
2023-05-06T20:36:28.414Z,65.81
2023-05-06T20:38:55.849Z,65.71
2023-05-06T20:41:23.262Z,66.44
2023-05-06T20:43:52.929Z,65.95
2023-05-06T20:46:20.752Z,65.17
2023-05-06T20:48:48.368Z,65.73
2023-05-06T20:51:16.164Z,64.33
2023-05-06T20:53:43.818Z,64.01
2023-05-06T20:56:23.223Z,63.12
2023-05-06T20:58:52.059Z,63.81
2023-05-06T21:01:20.797Z,62.15
2023-05-06T21:03:49.213Z,63.09
2023-05-06T21:06:18.010Z,62.72
2023-05-06T21:08:46.444Z,62.79
2023-05-06T21:11:14.316Z,62.97
2023-05-06T21:13:42.059Z,63.18
2023-05-06T21:16:09.622Z,64.11
2023-05-06T21:18:37.363Z,64.48
2023-05-06T21:21:04.832Z,64.24
2023-05-06T21:23:32.956Z,65.48
2023-05-06T21:26:00.490Z,65.19
2023-05-06T21:28:28.026Z,64.17
2023-05-06T21:30:56.010Z,64.55
2023-05-06T21:33:23.459Z,65.78
2023-05-06T21:35:50.999Z,65.90
2023-05-06T21:38:18.682Z,64.71
2023-05-06T21:40:46.218Z,65.72
2023-05-06T21:43:15.952Z,65.44
2023-05-06T21:45:44.093Z,64.77
2023-05-06T21:48:11.808Z,64.31
2023-05-06T21:50:39.299Z,65.77
2023-05-06T21:53:06.685Z,65.48
2023-05-06T21:55:34.146Z,66.14
2023-05-06T21:58:01.606Z,66.49
2023-05-06T22:00:29.756Z,67.18
2023-05-06T22:02:57.388Z,66.31
2023-05-06T22:05:24.913Z,66.28
2023-05-06T22:07:52.414Z,65.70
2023-05-06T22:10:20.101Z,66.00
2023-05-06T22:12:47.584Z,65.44
2023-05-06T22:15:15.364Z,66.51
2023-05-06T22:17:43.066Z,65.35
2023-05-06T22:20:11.164Z,65.72
2023-05-06T22:22:38.650Z,66.58
2023-05-06T22:25:06.885Z,66.43
2023-05-06T22:27:34.389Z,66.04
2023-05-06T22:30:01.845Z,65.99
2023-05-06T22:32:30.082Z,66.73
2023-05-06T22:34:57.612Z,67.33
2023-05-06T22:37:24.957Z,65.65
2023-05-06T22:39:53.423Z,65.97
2023-05-06T22:42:21.109Z,65.72
2023-05-06T22:44:48.442Z,65.06
2023-05-06T22:47:16.603Z,65.53
2023-05-06T22:49:43.956Z,65.85
2023-05-06T22:52:13.100Z,65.77
2023-05-06T22:54:40.568Z,66.51
2023-05-06T22:57:08.018Z,65.90
2023-05-06T22:59:35.552Z,65.55
2023-05-06T23:02:03.848Z,65.26
2023-05-06T23:04:31.390Z,65.49
2023-05-06T23:06:58.789Z,64.42
2023-05-06T23:09:26.141Z,64.56
2023-05-06T23:11:53.474Z,64.17
2023-05-06T23:14:20.945Z,64.38
2023-05-06T23:16:48.312Z,65.28
2023-05-06T23:19:15.868Z,65.98
2023-05-06T23:21:44.006Z,65.09
2023-05-06T23:24:12.065Z,64.19
2023-05-06T23:26:39.563Z,64.16
2023-05-06T23:29:07.098Z,64.31
2023-05-06T23:31:35.115Z,65.57
2023-05-06T23:34:02.751Z,63.55
2023-05-06T23:36:30.246Z,62.83
2023-05-06T23:38:57.643Z,61.95
2023-05-06T23:41:25.245Z,61.28
2023-05-06T23:43:52.643Z,62.32
2023-05-06T23:46:20.196Z,60.88
2023-05-06T23:48:47.751Z,61.69
2023-05-06T23:51:15.151Z,61.87
2023-05-06T23:53:42.510Z,61.34
2023-05-06T23:56:09.913Z,61.71
2023-05-06T23:58:37.333Z,61.51
